createdAt,value
2022-12-17T00:00:08.659Z,-0.66
2022-12-17T00:02:55.134Z,-0.69
2022-12-17T00:05:40.437Z,-0.60
2022-12-17T00:08:25.459Z,-0.51
2022-12-17T00:11:10.624Z,-0.56
2022-12-17T00:13:55.942Z,-0.58
2022-12-17T00:16:41.485Z,-0.74
2022-12-17T00:19:26.836Z,-0.64
2022-12-17T00:22:11.948Z,-0.51
2022-12-17T00:24:57.167Z,-0.57
2022-12-17T00:27:42.267Z,-0.57
2022-12-17T00:30:31.250Z,-0.57
2022-12-17T00:33:16.370Z,-0.47
2022-12-17T00:36:01.399Z,-0.42
2022-12-17T00:38:46.854Z,-0.49
2022-12-17T00:41:39.722Z,-0.66
2022-12-17T00:44:24.616Z,-0.52
2022-12-17T00:47:10.066Z,-0.53
2022-12-17T00:49:56.189Z,-0.49
2022-12-17T00:52:43.756Z,-0.43
2022-12-17T00:55:29.036Z,-0.47
2022-12-17T00:58:15.580Z,-0.42
2022-12-17T01:01:01.532Z,-0.35
2022-12-17T01:03:47.073Z,-0.38
2022-12-17T01:06:32.026Z,-0.46
2022-12-17T01:09:17.449Z,-0.34
2022-12-17T01:12:02.612Z,-0.35
2022-12-17T01:14:47.663Z,-0.28
2022-12-17T01:17:33.063Z,-0.24
2022-12-17T01:20:18.601Z,-0.26
2022-12-17T01:23:05.442Z,-0.26
2022-12-17T01:25:50.799Z,-0.18
2022-12-17T01:28:44.633Z,-0.15
2022-12-17T01:31:34.953Z,-0.17
2022-12-17T01:34:20.469Z,-0.36
2022-12-17T01:37:05.887Z,-0.19
2022-12-17T01:39:51.141Z,-0.30
2022-12-17T01:42:36.161Z,-0.20
2022-12-17T01:45:22.596Z,-0.12
2022-12-17T01:48:14.717Z,-0.14
2022-12-17T01:51:03.935Z,-0.06
2022-12-17T01:53:55.146Z,-0.13
2022-12-17T01:56:43.854Z,-0.01
2022-12-17T01:59:31.720Z,0.00
2022-12-17T02:02:17.518Z,0.05
2022-12-17T02:05:02.634Z,-0.09
2022-12-17T02:07:52.527Z,-0.13
2022-12-17T02:11:02.616Z,-0.05
2022-12-17T02:13:54.065Z,-0.15
2022-12-17T02:16:48.594Z,0.10
2022-12-17T02:19:49.063Z,0.08
2022-12-17T02:23:00.445Z,0.11
2022-12-17T02:26:00.873Z,-0.06
2022-12-17T02:28:46.965Z,0.14
2022-12-17T02:31:34.344Z,0.05
2022-12-17T02:34:19.841Z,0.13
2022-12-17T02:37:07.660Z,0.12
2022-12-17T02:39:52.914Z,0.19
2022-12-17T02:42:42.079Z,0.18
2022-12-17T02:45:29.141Z,0.16
2022-12-17T02:48:14.912Z,0.12
2022-12-17T02:51:01.256Z,0.12
2022-12-17T02:53:47.208Z,0.15
2022-12-17T02:56:32.541Z,0.29
2022-12-17T02:59:17.844Z,0.25
2022-12-17T03:02:03.136Z,0.20
2022-12-17T03:04:49.928Z,0.27
2022-12-17T03:07:35.163Z,0.12
2022-12-17T03:10:21.229Z,0.14
2022-12-17T03:13:06.180Z,0.07
2022-12-17T03:15:55.881Z,0.03
2022-12-17T03:18:41.132Z,0.19
2022-12-17T03:21:26.344Z,0.19
2022-12-17T03:24:11.397Z,0.19
2022-12-17T03:26:56.696Z,0.02
2022-12-17T03:29:41.828Z,-0.05
2022-12-17T03:32:26.701Z,0.05
2022-12-17T03:35:11.589Z,0.19
2022-12-17T03:37:56.720Z,0.21
2022-12-17T03:40:41.752Z,0.17
2022-12-17T03:43:27.574Z,0.03
2022-12-17T03:46:13.484Z,0.04
2022-12-17T03:48:58.842Z,0.22
2022-12-17T03:51:44.619Z,0.13
2022-12-17T03:54:29.569Z,0.14
2022-12-17T03:57:16.492Z,0.17
2022-12-17T04:00:01.793Z,0.21
2022-12-17T04:02:57.810Z,0.16
2022-12-17T04:05:43.405Z,0.20
2022-12-17T04:08:28.527Z,0.18
2022-12-17T04:11:13.830Z,0.18
2022-12-17T04:14:18.539Z,0.23
2022-12-17T04:17:03.595Z,0.16
2022-12-17T04:19:48.705Z,0.22
2022-12-17T04:22:33.533Z,0.11
2022-12-17T04:25:18.797Z,0.20
2022-12-17T04:28:03.836Z,0.13
2022-12-17T04:30:49.168Z,0.12
2022-12-17T04:33:34.751Z,0.13
2022-12-17T04:36:19.844Z,0.08
2022-12-17T04:39:04.878Z,0.07
2022-12-17T04:41:50.520Z,0.17
2022-12-17T04:44:35.579Z,0.21
2022-12-17T04:47:20.831Z,0.14
2022-12-17T04:50:05.849Z,0.12
2022-12-17T04:52:51.384Z,0.09
2022-12-17T04:55:36.304Z,0.17
2022-12-17T04:58:25.042Z,0.08
2022-12-17T05:01:12.672Z,0.14
2022-12-17T05:03:58.315Z,0.21
2022-12-17T05:06:43.836Z,0.18
2022-12-17T05:09:28.999Z,0.23
2022-12-17T05:12:14.330Z,0.12
2022-12-17T05:14:59.353Z,0.16
2022-12-17T05:17:44.485Z,0.07
2022-12-17T05:20:29.587Z,0.13
2022-12-17T05:23:14.498Z,0.14
2022-12-17T05:25:59.428Z,0.08
2022-12-17T05:28:44.532Z,0.03
2022-12-17T05:31:29.699Z,-0.02
2022-12-17T05:34:15.001Z,0.06
2022-12-17T05:37:00.109Z,0.13
2022-12-17T05:39:45.411Z,0.14
2022-12-17T05:42:30.503Z,0.22
2022-12-17T05:45:15.729Z,0.29
2022-12-17T05:48:00.686Z,0.28
2022-12-17T05:50:46.016Z,0.30
2022-12-17T05:53:48.061Z,0.26
2022-12-17T05:56:40.678Z,0.29
2022-12-17T05:59:25.746Z,0.15
2022-12-17T06:02:10.780Z,0.25
2022-12-17T06:05:01.819Z,0.25
2022-12-17T06:07:47.101Z,0.21
2022-12-17T06:10:31.961Z,0.20
2022-12-17T06:13:17.083Z,0.34
2022-12-17T06:16:02.501Z,0.32
2022-12-17T06:18:47.864Z,0.22
2022-12-17T06:21:32.852Z,0.27
2022-12-17T06:24:17.981Z,0.33
2022-12-17T06:27:02.956Z,0.34
2022-12-17T06:29:48.261Z,0.34
2022-12-17T06:32:33.639Z,0.25
2022-12-17T06:35:18.784Z,0.35
2022-12-17T06:38:04.176Z,0.28
2022-12-17T06:40:49.399Z,0.30
2022-12-17T06:43:35.080Z,0.34
2022-12-17T06:46:20.682Z,0.36
2022-12-17T06:49:06.114Z,0.35
2022-12-17T06:51:51.467Z,0.35
2022-12-17T06:54:36.490Z,0.23
2022-12-17T06:57:21.839Z,0.43
2022-12-17T07:25:38.509Z,0.27
2022-12-17T07:50:55.449Z,0.21
2022-12-17T07:53:44.283Z,0.26
2022-12-17T07:59:44.735Z,0.16
2022-12-17T08:02:33.117Z,0.30
2022-12-17T08:05:18.963Z,0.34
2022-12-17T08:08:08.695Z,0.38
2022-12-17T08:11:01.793Z,0.46
2022-12-17T08:13:48.073Z,0.40
2022-12-17T08:16:36.424Z,0.46
2022-12-17T08:19:22.836Z,0.38
2022-12-17T08:22:08.644Z,0.46
2022-12-17T08:24:54.826Z,0.55
2022-12-17T08:27:41.452Z,0.56
2022-12-17T08:30:28.570Z,0.62
2022-12-17T08:33:13.865Z,0.67
2022-12-17T08:35:58.964Z,0.64
2022-12-17T08:38:44.247Z,0.55
2022-12-17T08:41:29.639Z,0.64
2022-12-17T08:44:15.005Z,0.54
2022-12-17T08:47:00.237Z,0.52
2022-12-17T08:49:45.563Z,0.52
2022-12-17T08:52:30.866Z,0.72
2022-12-17T08:55:16.240Z,0.55
2022-12-17T08:58:01.526Z,0.68
2022-12-17T09:00:46.888Z,0.73
2022-12-17T09:03:32.073Z,0.73
2022-12-17T09:06:19.015Z,0.81
2022-12-17T09:09:06.574Z,0.97
2022-12-17T09:11:51.890Z,1.04
2022-12-17T09:14:37.487Z,1.03
2022-12-17T09:17:22.829Z,0.92
2022-12-17T09:20:15.596Z,1.01
2022-12-17T09:23:00.902Z,0.99
2022-12-17T09:25:46.244Z,1.09
2022-12-17T09:28:31.470Z,1.18
2022-12-17T09:31:18.327Z,1.26
2022-12-17T09:34:04.296Z,1.33
2022-12-17T09:36:51.412Z,1.31
2022-12-17T09:39:36.978Z,1.33
2022-12-17T09:42:28.329Z,1.27
2022-12-17T09:45:25.971Z,1.06
2022-12-17T09:48:42.427Z,1.03
2022-12-17T09:51:42.855Z,1.10
2022-12-17T09:55:00.819Z,1.20
2022-12-17T09:57:53.164Z,1.11
2022-12-17T10:00:41.932Z,0.95
2022-12-17T10:03:35.205Z,1.01
2022-12-17T10:06:29.219Z,1.06
2022-12-17T10:09:19.892Z,1.03
2022-12-17T10:12:05.071Z,0.98
2022-12-17T10:14:50.584Z,1.00
2022-12-17T10:17:40.589Z,1.12
2022-12-17T10:20:51.152Z,1.08
2022-12-17T10:23:58.401Z,1.20
2022-12-17T10:26:53.165Z,1.14
2022-12-17T10:29:45.535Z,1.13
2022-12-17T10:32:32.581Z,1.11
2022-12-17T10:35:18.027Z,0.92
2022-12-17T10:38:03.306Z,0.98
2022-12-17T10:40:51.670Z,0.94
2022-12-17T10:43:51.823Z,0.97
2022-12-17T10:46:48.708Z,1.02
2022-12-17T10:49:39.208Z,0.96
2022-12-17T10:52:43.393Z,1.03
2022-12-17T10:56:04.309Z,0.89
2022-12-17T10:58:50.177Z,0.96
2022-12-17T11:01:43.863Z,0.95
2022-12-17T11:04:51.742Z,0.92
2022-12-17T11:07:58.930Z,1.06
2022-12-17T11:10:46.856Z,0.92
2022-12-17T11:13:56.428Z,0.77
2022-12-17T11:16:47.498Z,0.87
2022-12-17T11:19:45.447Z,0.97
2022-12-17T11:22:48.410Z,0.91
2022-12-17T11:25:45.573Z,1.09
2022-12-17T11:28:37.183Z,1.09
2022-12-17T11:31:42.444Z,1.17
2022-12-17T11:34:58.697Z,1.38
2022-12-17T11:38:10.816Z,1.42
2022-12-17T11:40:59.674Z,1.41
2022-12-17T11:43:45.268Z,1.63
2022-12-17T11:46:39.394Z,1.66
2022-12-17T11:49:59.289Z,1.78
2022-12-17T11:53:15.829Z,1.81
2022-12-17T11:56:25.979Z,1.89
2022-12-17T11:59:15.437Z,1.96
2022-12-17T12:02:22.973Z,2.01
2022-12-17T12:05:56.653Z,2.05
2022-12-17T12:09:00.081Z,2.01
2022-12-17T12:12:29.938Z,1.95
2022-12-17T12:15:37.669Z,1.91
2022-12-17T12:18:39.000Z,1.78
2022-12-17T12:21:34.905Z,1.76
2022-12-17T12:24:31.086Z,1.67
2022-12-17T12:27:42.871Z,1.50
2022-12-17T12:30:34.583Z,1.42
2022-12-17T12:33:35.794Z,1.25
2022-12-17T12:36:25.171Z,1.29
2022-12-17T12:39:14.000Z,1.46
2022-12-17T12:42:22.369Z,1.49
2022-12-17T12:45:23.939Z,1.58
2022-12-17T12:48:28.802Z,1.59
2022-12-17T12:51:21.978Z,1.45
2022-12-17T12:54:18.027Z,1.58
2022-12-17T12:57:03.454Z,1.39
2022-12-17T12:59:53.610Z,1.59
2022-12-17T13:02:38.832Z,1.65
2022-12-17T13:05:34.180Z,1.48
2022-12-17T13:08:16.887Z,1.48
2022-12-17T13:10:43.588Z,1.37
2022-12-17T13:13:20.588Z,1.31
2022-12-17T13:15:50.137Z,1.36
2022-12-17T13:18:37.202Z,1.10
2022-12-17T13:21:22.544Z,1.21
2022-12-17T13:23:49.257Z,1.19
2022-12-17T13:26:17.473Z,1.22
2022-12-17T13:29:08.628Z,1.18
2022-12-17T13:31:44.099Z,1.16
2022-12-17T13:34:43.548Z,1.08
2022-12-17T13:37:27.232Z,1.12
2022-12-17T13:40:03.329Z,1.06
2022-12-17T13:42:36.027Z,1.05
2022-12-17T13:45:03.359Z,0.94
2022-12-17T13:47:32.586Z,0.96
2022-12-17T13:50:32.804Z,0.98
2022-12-17T13:52:48.223Z,0.93
2022-12-17T13:55:21.783Z,0.86
2022-12-17T13:57:49.265Z,0.94
2022-12-17T14:00:28.445Z,0.81
2022-12-17T14:02:55.677Z,0.80
2022-12-17T14:05:37.694Z,0.75
2022-12-17T14:08:05.448Z,0.87
2022-12-17T14:10:32.452Z,0.82
2022-12-17T14:13:11.659Z,0.78
2022-12-17T14:15:38.345Z,0.92
2022-12-17T14:18:06.150Z,0.78
2022-12-17T14:20:34.792Z,0.72
2022-12-17T14:23:03.956Z,0.78
2022-12-17T14:25:34.953Z,0.78
2022-12-17T14:28:06.915Z,0.72
2022-12-17T14:31:02.641Z,0.67
2022-12-17T14:33:27.776Z,0.62
2022-12-17T14:35:55.917Z,0.68
2022-12-17T14:38:37.395Z,0.51
2022-12-17T14:41:32.737Z,0.60
2022-12-17T14:44:00.790Z,0.56
2022-12-17T14:46:29.078Z,0.61
2022-12-17T14:49:03.505Z,0.62
2022-12-17T14:51:31.983Z,0.59
2022-12-17T14:54:18.343Z,0.51
2022-12-17T14:56:47.012Z,0.51
2022-12-17T14:59:32.133Z,0.42
2022-12-17T15:02:14.544Z,0.40
2022-12-17T15:04:41.427Z,0.49
2022-12-17T15:07:10.903Z,0.52
2022-12-17T15:09:42.199Z,0.34
2022-12-17T15:12:09.376Z,0.29
2022-12-17T15:14:36.002Z,0.42
2022-12-17T15:17:02.724Z,0.32
2022-12-17T15:19:29.334Z,0.41
2022-12-17T15:21:55.956Z,0.46
2022-12-17T15:24:22.592Z,0.32
2022-12-17T15:26:49.578Z,0.46
2022-12-17T15:29:16.405Z,0.44
2022-12-17T15:31:43.087Z,0.43
2022-12-17T15:34:11.046Z,0.49
2022-12-17T15:36:37.681Z,0.34
2022-12-17T15:39:06.289Z,0.36
2022-12-17T15:41:51.447Z,0.27
2022-12-17T15:44:18.088Z,0.22
2022-12-17T15:46:45.375Z,0.23
2022-12-17T15:49:11.988Z,0.34
2022-12-17T15:51:38.579Z,0.28
2022-12-17T15:54:05.236Z,0.22
2022-12-17T15:56:31.927Z,0.38
2022-12-17T15:58:59.214Z,0.23
2022-12-17T16:01:25.997Z,0.29
2022-12-17T16:03:52.777Z,0.19
2022-12-17T16:06:19.527Z,0.24
2022-12-17T16:08:46.074Z,0.00
2022-12-17T16:11:14.057Z,0.22
2022-12-17T16:13:40.727Z,0.30
2022-12-17T16:16:08.640Z,0.42
2022-12-17T16:18:36.495Z,0.35
2022-12-17T16:21:04.387Z,0.24
2022-12-17T16:23:30.987Z,0.30
2022-12-17T16:25:58.876Z,0.13
2022-12-17T16:28:26.189Z,0.18
2022-12-17T16:31:07.009Z,0.27
2022-12-17T16:33:39.797Z,0.07
2022-12-17T16:36:07.867Z,0.19
2022-12-17T16:38:35.097Z,0.18
2022-12-17T16:41:03.403Z,0.07
2022-12-17T16:43:33.736Z,0.12
2022-12-17T16:46:00.490Z,0.09
2022-12-17T16:48:27.140Z,0.13
2022-12-17T16:50:53.815Z,0.05
2022-12-17T16:53:20.436Z,0.05
2022-12-17T16:55:48.961Z,0.03
2022-12-17T16:58:17.348Z,0.14
2022-12-17T17:00:45.627Z,0.20
2022-12-17T17:03:12.418Z,0.31
2022-12-17T17:05:39.930Z,0.12
2022-12-17T17:08:06.868Z,0.07
2022-12-17T17:10:35.761Z,0.06
2022-12-17T17:13:02.605Z,-0.01
2022-12-17T17:15:29.397Z,0.04
2022-12-17T17:18:01.968Z,-0.12
2022-12-17T17:20:32.282Z,-0.13
2022-12-17T17:22:59.718Z,-0.15
2022-12-17T17:25:43.994Z,-0.19
2022-12-17T17:28:13.637Z,-0.24
2022-12-17T17:30:40.265Z,-0.26
2022-12-17T17:33:06.907Z,-0.13
2022-12-17T17:35:33.495Z,-0.11
2022-12-17T17:38:00.123Z,0.03
2022-12-17T17:40:26.760Z,-0.04
2022-12-17T17:42:53.469Z,0.01
2022-12-17T17:45:20.142Z,-0.04
2022-12-17T17:47:46.787Z,-0.08
2022-12-17T17:50:13.320Z,-0.06
2022-12-17T17:52:39.935Z,-0.11
2022-12-17T17:55:07.148Z,-0.01
2022-12-17T17:57:33.731Z,-0.11
2022-12-17T18:00:00.362Z,-0.06
2022-12-17T18:02:27.246Z,-0.07
2022-12-17T18:04:53.965Z,-0.09
2022-12-17T18:07:28.405Z,-0.14
2022-12-17T18:09:55.785Z,0.02
2022-12-17T18:12:41.676Z,-0.05
2022-12-17T18:15:17.694Z,-0.06
2022-12-17T18:17:46.449Z,-0.16
2022-12-17T18:20:13.836Z,-0.17
2022-12-17T18:22:40.548Z,-0.21
2022-12-17T18:25:07.464Z,-0.11
2022-12-17T18:27:34.084Z,-0.14
2022-12-17T18:30:00.781Z,-0.19
2022-12-17T18:32:27.552Z,0.03
2022-12-17T18:34:54.181Z,-0.19
2022-12-17T18:37:20.780Z,-0.14
2022-12-17T18:39:48.720Z,-0.17
2022-12-17T18:42:33.500Z,-0.24
2022-12-17T18:45:00.242Z,-0.32
2022-12-17T18:47:27.098Z,-0.36
2022-12-17T18:49:53.746Z,-0.29
2022-12-17T18:52:20.336Z,-0.17
2022-12-17T18:54:48.132Z,-0.25
2022-12-17T18:57:14.864Z,-0.32
2022-12-17T18:59:41.424Z,-0.39
2022-12-17T19:02:14.563Z,-0.40
2022-12-17T19:04:41.846Z,-0.32
2022-12-17T19:07:08.674Z,-0.26
2022-12-17T19:09:36.100Z,-0.24
2022-12-17T19:12:05.522Z,-0.16
2022-12-17T19:14:32.187Z,-0.26
2022-12-17T19:16:58.829Z,-0.35
2022-12-17T19:19:25.891Z,-0.26
2022-12-17T19:21:54.945Z,-0.15
2022-12-17T19:24:22.254Z,-0.05
2022-12-17T19:26:50.404Z,-0.14
2022-12-17T19:29:18.901Z,-0.12
2022-12-17T19:31:45.885Z,-0.25
2022-12-17T19:34:14.719Z,-0.24
2022-12-17T19:36:43.042Z,-0.14
2022-12-17T19:39:13.196Z,-0.21
2022-12-17T19:41:40.019Z,-0.28
2022-12-17T19:44:08.563Z,-0.15
2022-12-17T19:46:36.219Z,-0.20
2022-12-17T19:49:03.838Z,-0.38
2022-12-17T19:51:31.508Z,-0.37
2022-12-17T19:54:01.786Z,-0.38
2022-12-17T19:56:32.080Z,-0.33
2022-12-17T19:59:04.847Z,-0.35
2022-12-17T20:01:33.927Z,-0.28
2022-12-17T20:04:01.024Z,-0.24
2022-12-17T20:06:31.863Z,-0.28
2022-12-17T20:08:59.131Z,-0.30
2022-12-17T20:11:35.015Z,-0.28
2022-12-17T20:14:03.690Z,-0.25
2022-12-17T20:16:32.628Z,-0.25
2022-12-17T20:19:00.586Z,-0.32
2022-12-17T20:21:27.860Z,-0.38
2022-12-17T20:23:54.607Z,-0.32
2022-12-17T20:26:21.872Z,-0.38
2022-12-17T20:28:48.559Z,-0.32
2022-12-17T20:31:15.389Z,-0.35
2022-12-17T20:33:42.285Z,-0.38
2022-12-17T20:36:14.484Z,-0.32
2022-12-17T20:38:42.264Z,-0.34
2022-12-17T20:41:20.228Z,-0.38
2022-12-17T20:43:47.731Z,-0.42
2022-12-17T20:46:14.483Z,-0.38
2022-12-17T20:48:42.852Z,-0.39
2022-12-17T20:51:14.720Z,-0.51
2022-12-17T20:53:42.148Z,-0.35
2022-12-17T20:56:12.017Z,-0.35
2022-12-17T20:58:39.954Z,-0.39
2022-12-17T21:01:26.653Z,-0.33
2022-12-17T21:03:54.637Z,-0.35
2022-12-17T21:06:23.936Z,-0.42
2022-12-17T21:08:51.656Z,-0.39
2022-12-17T21:11:21.390Z,-0.35
2022-12-17T21:13:48.260Z,-0.33
2022-12-17T21:16:20.035Z,-0.47
2022-12-17T21:18:46.692Z,-0.50
2022-12-17T21:21:17.096Z,-0.59
2022-12-17T21:23:45.320Z,-0.46
2022-12-17T21:26:16.335Z,-0.41
2022-12-17T21:28:47.320Z,-0.39
2022-12-17T21:31:25.923Z,-0.53
2022-12-17T21:33:56.879Z,-0.61
2022-12-17T21:36:24.819Z,-0.73
2022-12-17T21:38:52.073Z,-0.85
2022-12-17T21:41:25.096Z,-0.90
2022-12-17T21:44:03.057Z,-1.03
2022-12-17T21:46:30.682Z,-1.15
2022-12-17T21:48:58.714Z,-1.16
2022-12-17T21:51:25.817Z,-1.20
2022-12-17T21:53:54.778Z,-1.27
2022-12-17T21:56:22.017Z,-1.26
2022-12-17T21:58:49.599Z,-1.20
2022-12-17T22:01:22.257Z,-1.17
2022-12-17T22:03:53.576Z,-1.15
2022-12-17T22:06:22.919Z,-1.03
2022-12-17T22:08:51.080Z,-0.99
2022-12-17T22:11:25.283Z,-0.96
2022-12-17T22:14:13.772Z,-0.90
2022-12-17T22:16:48.951Z,-0.88
2022-12-17T22:19:22.194Z,-0.89
2022-12-17T22:21:51.103Z,-0.89
2022-12-17T22:24:25.072Z,-0.89
2022-12-17T22:26:56.152Z,-0.81
2022-12-17T22:29:41.281Z,-0.90
2022-12-17T22:32:28.075Z,-0.89
2022-12-17T22:35:41.985Z,-0.77
2022-12-17T22:42:19.230Z,-0.80
2022-12-17T22:44:31.381Z,-0.79
2022-12-17T22:44:43.344Z,-0.94
2022-12-17T22:46:19.477Z,-0.91
2022-12-17T22:48:46.799Z,-0.89
2022-12-17T22:51:17.303Z,-0.81
2022-12-17T22:53:49.475Z,-0.86
2022-12-17T22:56:28.423Z,-0.85
2022-12-17T22:59:03.767Z,-0.91
2022-12-17T23:01:30.987Z,-0.95
2022-12-17T23:03:59.145Z,-0.84
2022-12-17T23:06:26.312Z,-0.76
2022-12-17T23:08:53.086Z,-0.84
2022-12-17T23:11:24.284Z,-0.87
2022-12-17T23:13:51.416Z,-0.84
2022-12-17T23:16:18.633Z,-0.83
2022-12-17T23:18:46.164Z,-0.88
2022-12-17T23:21:19.296Z,-0.89
2022-12-17T23:23:46.121Z,-0.82
2022-12-17T23:26:21.080Z,-0.76
2022-12-17T23:28:48.431Z,-0.70
2022-12-17T23:31:18.764Z,-0.70
2022-12-17T23:33:45.952Z,-0.78
2022-12-17T23:36:14.668Z,-0.81
2022-12-17T23:38:42.027Z,-0.73
2022-12-17T23:41:21.256Z,-0.89
2022-12-17T23:43:48.813Z,-0.91
2022-12-17T23:46:16.435Z,-0.93
2022-12-17T23:48:45.741Z,-0.86
2022-12-17T23:51:14.289Z,-1.05
2022-12-17T23:53:41.783Z,-1.08
2022-12-17T23:56:11.419Z,-1.22
2022-12-17T23:58:38.865Z,-1.14
